Time;durP1;ratioP1;P1;durP2;ratioP2;P2;SDS_P1;SDS_P2;PMS_P1;PMS_P2;Temp;Humidity;BMP_temperature;BMP_pressure;BME280_temperature;BME280_humidity;BME280_pressure;Samples;Min_cycle;Max_cycle;Signal;HPM_P1;HPM_P2
2021/03/28 00:02:16;;;;;;;10.65;8.20;;;;;;;;;;4994686;28;20126;-58
2021/03/28 00:04:42;;;;;;;;;;;;;;;;;;4997290;28;20030;-59
2021/03/28 00:07:09;;;;;;;14.30;8.73;;;;;;;;;;4993544;28;19928;-61
2021/03/28 00:09:35;;;;;;;10.60;7.88;;;;;;;;;;5000649;28;20045;-58
2021/03/28 00:12:20;;;;;;;11.15;8.27;;;;;;;;;;4994786;28;20042;-58
2021/03/28 00:14:49;;;;;;;9.93;7.88;;;;;;;;;;4995485;28;20473;-61
2021/03/28 00:17:21;;;;;;;14.95;8.55;;;;;;;;;;4994327;28;20362;-58
2021/03/28 00:19:56;;;;;;;12.38;7.68;;;;;;;;;;4993365;28;20050;-60
2021/03/28 00:22:25;;;;;;;11.40;7.78;;;;;;;;;;5004783;28;20029;-57
2021/03/28 00:25:04;;;;;;;11.18;8.05;;;;;;;;;;5012747;28;20065;-58
2021/03/28 00:27:37;;;;;;;12.80;7.47;;;;;;;;;;5013079;28;20037;-57
2021/03/28 00:30:21;;;;;;;11.23;7.72;;;;;;;;;;5009644;28;20037;-60
2021/03/28 00:32:48;;;;;;;10.77;7.35;;;;;;;;;;5011326;28;20029;-60
2021/03/28 00:35:16;;;;;;;10.73;8.15;;;;;;;;;;5012425;28;20503;-60
2021/03/28 00:37:44;;;;;;;12.45;8.43;;;;;;;;;;5005081;28;20120;-59
2021/03/28 00:40:10;;;;;;;14.48;8.70;;;;;;;;;;5003576;28;20026;-61
2021/03/28 00:42:42;;;;;;;13.75;9.02;;;;;;;;;;5031768;28;20018;-60
2021/03/28 00:45:21;;;;;;;14.93;8.77;;;;;;;;;;5004001;28;20030;-59
2021/03/28 00:48:06;;;;;;;14.48;9.75;;;;;;;;;;5008679;28;20022;-60
2021/03/28 00:50:36;;;;;;;12.60;8.95;;;;;;;;;;4994763;28;20461;-59
2021/03/28 00:53:03;;;;;;;18.05;9.82;;;;;;;;;;4994642;28;20060;-58
2021/03/28 00:55:32;;;;;;;16.25;9.73;;;;;;;;;;4993486;28;20076;-59
2021/03/28 00:58:03;;;;;;;15.40;10.40;;;;;;;;;;5010498;28;20018;-59
2021/03/28 01:00:32;;;;;;;14.25;9.55;;;;;;;;;;5012765;28;20108;-59
2021/03/28 01:03:03;;;;;;;;;;;;;;;;;;5012630;28;20157;-58
2021/03/28 01:05:33;;;;;;;12.63;8.45;;;;;;;;;;5012645;28;19906;-60
2021/03/28 01:08:03;;;;;;;11.52;7.82;;;;;;;;;;5012365;28;20076;-60
2021/03/28 01:10:35;;;;;;;11.13;6.82;;;;;;;;;;5012237;28;20037;-60
2021/03/28 01:13:20;;;;;;;12.48;7.63;;;;;;;;;;5012556;28;20026;-59
2021/03/28 01:16:01;;;;;;;11.25;7.05;;;;;;;;;;5012629;28;20044;-61
2021/03/28 01:18:30;;;;;;;10.98;7.13;;;;;;;;;;5012180;28;20021;-61
2021/03/28 01:21:16;;;;;;;8.73;6.35;;;;;;;;;;4997633;28;20105;-61
2021/03/28 01:23:44;;;;;;;9.32;6.00;;;;;;;;;;5003165;28;20029;-60
2021/03/28 01:26:10;;;;;;;12.45;6.30;;;;;;;;;;4994786;28;20023;-62
2021/03/28 01:28:45;;;;;;;9.63;6.20;;;;;;;;;;4995930;28;20030;-60
2021/03/28 01:31:27;;;;;;;8.85;6.35;;;;;;;;;;5007050;28;20531;-59
2021/03/28 01:34:02;;;;;;;8.18;5.60;;;;;;;;;;5006379;28;20030;-60
2021/03/28 01:36:34;;;;;;;8.15;5.78;;;;;;;;;;5009569;28;20021;-60
2021/03/28 01:39:00;;;;;;;11.00;5.47;;;;;;;;;;5006456;28;20013;-60
2021/03/28 01:41:29;;;;;;;7.25;5.75;;;;;;;;;;5000742;28;20415;-60
2021/03/28 01:43:56;;;;;;;9.45;5.32;;;;;;;;;;4998229;28;20038;-60
2021/03/28 01:46:39;;;;;;;7.97;5.28;;;;;;;;;;4999382;28;20077;-61
2021/03/28 01:49:20;;;;;;;6.25;4.35;;;;;;;;;;5007171;28;20026;-62
2021/03/28 01:52:00;;;;;;;8.68;5.32;;;;;;;;;;5006750;28;20053;-60
2021/03/28 01:54:42;;;;;;;7.05;5.22;;;;;;;;;;5014138;28;20056;-60
2021/03/28 01:57:14;;;;;;;7.07;5.30;;;;;;;;;;5015977;28;20028;-60
2021/03/28 02:00:00;;;;;;;9.07;4.63;;;;;;;;;;5015814;28;20041;-60
2021/03/28 02:02:35;;;;;;;8.00;4.97;;;;;;;;;;5008630;28;20018;-61
2021/03/28 02:05:16;;;;;;;5.63;4.20;;;;;;;;;;5010482;28;20026;-59
2021/03/28 02:08:01;;;;;;;6.82;5.00;;;;;;;;;;5015957;28;20350;-60
2021/03/28 02:10:42;;;;;;;5.15;4.30;;;;;;;;;;5014744;28;20046;-59
2021/03/28 02:13:21;;;;;;;4.68;4.05;;;;;;;;;;5006887;28;20373;-60
2021/03/28 02:15:50;;;;;;;6.70;4.72;;;;;;;;;;5014157;28;20036;-59
2021/03/28 02:18:35;;;;;;;11.68;5.35;;;;;;;;;;5009072;28;20488;-58
2021/03/28 02:21:10;;;;;;;7.38;4.78;;;;;;;;;;5003167;28;20101;-58
2021/03/28 02:23:42;;;;;;;5.97;4.70;;;;;;;;;;5015536;28;20026;-58
2021/03/28 02:26:19;;;;;;;8.82;4.80;;;;;;;;;;5015204;28;20049;-58
2021/03/28 02:28:45;;;;;;;7.45;5.00;;;;;;;;;;5009478;28;20037;-59
2021/03/28 02:31:21;;;;;;;6.50;4.32;;;;;;;;;;5012559;28;20113;-58
2021/03/28 02:33:53;;;;;;;5.78;4.22;;;;;;;;;;5014769;28;20021;-57
2021/03/28 02:36:30;;;;;;;7.63;4.57;;;;;;;;;;5015329;28;20022;-58
2021/03/28 02:38:59;;;;;;;6.80;4.00;;;;;;;;;;5013736;28;20068;-58
2021/03/28 02:41:25;;;;;;;6.60;4.00;;;;;;;;;;5015344;28;20523;-59
2021/03/28 02:43:57;;;;;;;9.10;4.75;;;;;;;;;;5015031;28;20037;-59
2021/03/28 02:46:27;;;;;;;7.03;3.95;;;;;;;;;;5014604;28;20036;-58
2021/03/28 02:48:56;;;;;;;5.07;3.53;;;;;;;;;;5015023;28;20468;-59
2021/03/28 02:51:27;;;;;;;5.90;3.70;;;;;;;;;;5014824;28;20113;-59
2021/03/28 02:54:11;;;;;;;5.72;3.53;;;;;;;;;;5014063;28;20058;-59
2021/03/28 02:57:00;;;;;;;5.10;3.17;;;;;;;;;;5014603;28;20120;-59
2021/03/28 02:59:52;;;;;;;3.95;3.22;;;;;;;;;;4973410;28;20054;-59
2021/03/28 03:02:27;;;;;;;4.80;3.38;;;;;;;;;;4971338;28;20045;-61
2021/03/28 03:04:59;;;;;;;7.57;3.33;;;;;;;;;;4972545;28;20167;-59
2021/03/28 03:07:28;;;;;;;6.53;3.15;;;;;;;;;;4972216;28;20027;-59
2021/03/28 03:09:54;;;;;;;;;;;;;;;;;;4972343;28;20055;-58
2021/03/28 03:12:39;;;;;;;7.05;3.33;;;;;;;;;;4972436;28;19906;-59
2021/03/28 03:15:12;;;;;;;6.55;3.67;;;;;;;;;;4972823;28;20078;-57
2021/03/28 03:17:57;;;;;;;6.93;2.95;;;;;;;;;;4973492;28;20081;-58
2021/03/28 03:20:34;;;;;;;4.75;2.70;;;;;;;;;;4972908;28;20433;-58
2021/03/28 03:23:18;;;;;;;5.80;2.25;;;;;;;;;;4960383;28;20039;-58
2021/03/28 03:26:03;;;;;;;6.93;2.97;;;;;;;;;;4972691;28;20433;-58
2021/03/28 03:28:40;;;;;;;4.30;2.45;;;;;;;;;;4973192;28;20092;-59
2021/03/28 03:31:06;;;;;;;5.18;2.25;;;;;;;;;;4972858;28;20051;-58
2021/03/28 03:33:48;;;;;;;3.70;2.22;;;;;;;;;;4970840;28;20501;-58
2021/03/28 03:36:26;;;;;;;7.97;2.13;;;;;;;;;;4991272;28;20038;-58
2021/03/28 03:39:11;;;;;;;3.47;2.08;;;;;;;;;;5014183;28;20021;-59
2021/03/28 03:41:43;;;;;;;6.95;2.60;;;;;;;;;;5014299;28;20042;-58
2021/03/28 03:44:32;;;;;;;7.70;2.65;;;;;;;;;;5014832;28;20018;-58
2021/03/28 03:47:14;;;;;;;5.97;2.97;;;;;;;;;;5014425;28;20032;-60
2021/03/28 03:49:40;;;;;;;7.97;2.20;;;;;;;;;;5015348;28;20036;-59
2021/03/28 03:52:25;;;;;;;7.43;2.28;;;;;;;;;;5017263;28;20054;-58
2021/03/28 03:54:55;;;;;;;10.50;3.05;;;;;;;;;;5016626;28;20048;-59
2021/03/28 03:57:33;;;;;;;9.60;3.17;;;;;;;;;;5017821;28;20030;-60
2021/03/28 04:00:02;;;;;;;7.07;2.58;;;;;;;;;;5017292;28;20026;-58
2021/03/28 04:02:28;;;;;;;;;;;;;;;;;;5016243;28;20033;-61
2021/03/28 04:05:13;;;;;;;8.40;2.47;;;;;;;;;;5016428;28;19959;-59
2021/03/28 04:07:55;;;;;;;5.03;1.83;;;;;;;;;;5015438;28;20106;-59
2021/03/28 04:10:36;;;;;;;3.00;1.65;;;;;;;;;;5013045;28;20081;-59
2021/03/28 04:13:22;;;;;;;5.18;1.40;;;;;;;;;;5013706;28;20033;-58
2021/03/28 04:15:57;;;;;;;5.05;1.77;;;;;;;;;;5013394;28;20057;-57
2021/03/28 04:18:23;;;;;;;4.00;1.30;;;;;;;;;;5013108;28;20030;-58
2021/03/28 04:20:57;;;;;;;7.00;1.60;;;;;;;;;;5012977;28;20018;-58
2021/03/28 04:23:41;;;;;;;4.65;1.42;;;;;;;;;;5013368;28;20056;-57
2021/03/28 04:26:25;;;;;;;4.30;1.52;;;;;;;;;;5012775;28;20052;-58
2021/03/28 04:28:53;;;;;;;5.47;1.30;;;;;;;;;;5012941;28;20022;-58
2021/03/28 04:31:31;;;;;;;7.28;1.65;;;;;;;;;;5013119;28;20033;-58
2021/03/28 04:34:10;;;;;;;6.00;1.47;;;;;;;;;;5012704;28;20079;-58
2021/03/28 04:36:41;;;;;;;3.15;1.38;;;;;;;;;;5010529;28;20026;-58
2021/03/28 04:39:26;;;;;;;6.57;1.45;;;;;;;;;;5012919;28;20464;-58
2021/03/28 04:41:52;;;;;;;6.82;1.73;;;;;;;;;;5013225;28;20069;-59
2021/03/28 04:44:18;;;;;;;2.45;1.40;;;;;;;;;;5012762;28;20029;-59
2021/03/28 04:46:56;;;;;;;2.55;1.85;;;;;;;;;;5012692;28;20022;-60
2021/03/28 04:49:46;;;;;;;2.47;1.55;;;;;;;;;;5012912;28;20065;-57
2021/03/28 04:52:27;;;;;;;3.85;1.25;;;;;;;;;;5013037;28;20030;-58
2021/03/28 04:54:56;;;;;;;3.42;1.52;;;;;;;;;;5012684;28;20372;-58
2021/03/28 04:57:22;;;;;;;;;;;;;;;;;;5012752;28;20113;-58
2021/03/28 04:59:51;;;;;;;2.00;1.20;;;;;;;;;;5012758;28;20340;-58
2021/03/28 05:02:36;;;;;;;5.63;1.30;;;;;;;;;;5012474;28;20021;-58
2021/03/28 05:05:05;;;;;;;5.55;1.25;;;;;;;;;;5012266;28;20426;-58
2021/03/28 05:07:31;;;;;;;5.72;1.75;;;;;;;;;;5012533;28;20052;-59
2021/03/28 05:10:03;;;;;;;4.97;1.67;;;;;;;;;;5011995;28;20089;-58
2021/03/28 05:12:47;;;;;;;5.05;2.33;;;;;;;;;;5012298;28;20025;-58
2021/03/28 05:15:32;;;;;;;3.50;1.65;;;;;;;;;;5012574;28;20033;-58
2021/03/28 05:18:25;;;;;;;8.70;2.10;;;;;;;;;;5011944;28;20026;-57
2021/03/28 05:21:09;;;;;;;4.20;1.55;;;;;;;;;;5012013;28;20022;-58
2021/03/28 05:23:45;;;;;;;5.28;2.10;;;;;;;;;;5012434;28;20026;-60
2021/03/28 05:26:20;;;;;;;6.50;1.95;;;;;;;;;;5012443;28;20369;-60
2021/03/28 05:29:05;;;;;;;5.00;1.95;;;;;;;;;;5011913;28;20054;-60
2021/03/28 05:31:49;;;;;;;5.78;1.33;;;;;;;;;;5012138;28;20566;-60
2021/03/28 05:34:34;;;;;;;2.72;1.90;;;;;;;;;;5012252;28;20029;-60
2021/03/28 05:37:18;;;;;;;7.13;1.58;;;;;;;;;;5012278;28;20060;-60
2021/03/28 05:39:47;;;;;;;7.50;1.45;;;;;;;;;;5011764;28;20036;-60
2021/03/28 05:42:16;;;;;;;3.80;1.55;;;;;;;;;;5012305;28;20109;-60
2021/03/28 05:44:42;;;;;;;;;;;;;;;;;;5012286;28;20064;-59
2021/03/28 05:47:17;;;;;;;6.47;2.40;;;;;;;;;;5015066;28;19905;-60
2021/03/28 05:49:53;;;;;;;5.63;1.58;;;;;;;;;;5014875;28;20571;-60
2021/03/28 05:52:31;;;;;;;5.03;1.55;;;;;;;;;;5014919;28;20081;-61
2021/03/28 05:55:06;;;;;;;4.43;2.07;;;;;;;;;;5019177;28;20112;-64
2021/03/28 05:57:45;;;;;;;3.95;1.90;;;;;;;;;;5018922;28;20081;-59
2021/03/28 06:00:29;;;;;;;3.95;1.70;;;;;;;;;;5016347;28;20037;-59
2021/03/28 06:03:14;;;;;;;7.03;1.83;;;;;;;;;;5013303;28;20040;-58
2021/03/28 06:05:55;;;;;;;4.53;1.80;;;;;;;;;;5012177;28;20105;-60
2021/03/28 06:08:28;;;;;;;4.97;1.70;;;;;;;;;;5011777;28;20085;-61
2021/03/28 06:11:12;;;;;;;4.40;1.90;;;;;;;;;;5012025;28;20113;-61
2021/03/28 06:13:57;;;;;;;5.50;2.45;;;;;;;;;;5012195;28;20156;-60
2021/03/28 06:16:41;;;;;;;6.75;1.63;;;;;;;;;;5011786;28;20112;-60
2021/03/28 06:19:22;;;;;;;6.32;1.38;;;;;;;;;;5011579;28;20097;-60
2021/03/28 06:21:51;;;;;;;2.83;1.75;;;;;;;;;;5012142;28;20022;-60
2021/03/28 06:24:56;;;;;;;2.17;1.30;;;;;;;;;;5011189;28;20484;-60
2021/03/28 06:27:39;;;;;;;4.93;1.83;;;;;;;;;;4988734;28;20059;-60
2021/03/28 06:30:24;;;;;;;2.72;1.50;;;;;;;;;;4992473;28;20046;-61
2021/03/28 06:33:06;;;;;;;4.38;1.50;;;;;;;;;;4993599;28;20134;-60
2021/03/28 06:35:51;;;;;;;5.30;1.52;;;;;;;;;;4993778;28;20543;-60
2021/03/28 06:38:32;;;;;;;3.65;1.48;;;;;;;;;;4987285;28;20137;-60
2021/03/28 06:41:16;;;;;;;5.25;1.60;;;;;;;;;;4989615;28;20492;-59
2021/03/28 06:44:01;;;;;;;3.67;1.48;;;;;;;;;;4993226;28;20042;-60
2021/03/28 06:46:33;;;;;;;6.50;1.60;;;;;;;;;;4993234;28;20477;-61
2021/03/28 06:49:17;;;;;;;3.30;1.20;;;;;;;;;;4976744;28;20025;-61
2021/03/28 06:51:48;;;;;;;3.67;1.52;;;;;;;;;;4993479;28;20544;-62
2021/03/28 06:54:44;;;;;;;5.53;1.80;;;;;;;;;;4993224;28;20053;-61
2021/03/28 06:57:10;;;;;;;3.72;1.40;;;;;;;;;;4994960;28;20393;-59
2021/03/28 06:59:36;;;;;;;3.92;1.70;;;;;;;;;;5015018;28;20025;-62
2021/03/28 07:02:21;;;;;;;7.18;2.08;;;;;;;;;;5014628;28;20034;-61
2021/03/28 07:05:05;;;;;;;3.45;2.05;;;;;;;;;;5014964;28;20030;-60
2021/03/28 07:07:50;;;;;;;3.53;1.42;;;;;;;;;;5001667;28;20072;-60
2021/03/28 07:10:28;;;;;;;4.10;2.08;;;;;;;;;;5014441;28;20111;-63
2021/03/28 07:13:13;;;;;;;4.32;1.83;;;;;;;;;;5014532;28;20034;-60
2021/03/28 07:16:02;;;;;;;4.10;1.70;;;;;;;;;;5014078;28;20105;-60
2021/03/28 07:18:49;;;;;;;4.03;1.60;;;;;;;;;;4992647;28;20092;-60
2021/03/28 07:21:33;;;;;;;4.57;2.08;;;;;;;;;;4993006;28;20022;-63
2021/03/28 07:24:14;;;;;;;7.43;2.88;;;;;;;;;;4992747;28;20053;-61
2021/03/28 07:26:58;;;;;;;3.35;1.85;;;;;;;;;;4996423;28;20022;-61
2021/03/28 07:29:42;;;;;;;6.35;3.35;;;;;;;;;;4994761;28;20117;-65
2021/03/28 07:32:26;;;;;;;5.47;2.08;;;;;;;;;;4995263;28;20077;-64
2021/03/28 07:35:11;;;;;;;6.05;3.35;;;;;;;;;;4997384;28;20433;-61
2021/03/28 07:37:46;;;;;;;2.33;1.92;;;;;;;;;;4999167;28;20441;-60
2021/03/28 07:40:27;;;;;;;4.85;2.22;;;;;;;;;;4994230;28;20085;-59
2021/03/28 07:42:53;;;;;;;5.25;2.97;;;;;;;;;;4992072;28;20045;-62
2021/03/28 07:45:25;;;;;;;3.63;2.20;;;;;;;;;;4976176;28;20041;-62
2021/03/28 07:48:06;;;;;;;3.03;2.13;;;;;;;;;;4992717;28;20109;-61
2021/03/28 07:50:52;;;;;;;4.57;2.20;;;;;;;;;;4992109;28;20118;-60
2021/03/28 07:53:36;;;;;;;3.60;2.30;;;;;;;;;;5008169;28;20061;-61
2021/03/28 07:56:20;;;;;;;6.80;2.40;;;;;;;;;;5005478;28;20092;-60
2021/03/28 07:58:47;;;;;;;3.25;2.38;;;;;;;;;;5013684;28;20476;-59
2021/03/28 08:01:31;;;;;;;5.30;3.47;;;;;;;;;;5005322;28;20030;-58
2021/03/28 08:04:09;;;;;;;3.47;1.67;;;;;;;;;;5012437;28;20029;-61
2021/03/28 08:06:35;;;;;;;7.47;2.83;;;;;;;;;;5011978;28;20419;-60
2021/03/28 08:09:22;;;;;;;3.70;1.90;;;;;;;;;;4999697;28;20050;-63
2021/03/28 08:11:55;;;;;;;5.10;2.30;;;;;;;;;;5001275;28;20125;-62
2021/03/28 08:14:40;;;;;;;12.00;10.90;;;;;;;;;;4999269;28;20028;-59
2021/03/28 08:17:22;;;;;;;3.88;2.47;;;;;;;;;;5001668;28;20031;-61
2021/03/28 08:20:07;;;;;;;3.20;1.70;;;;;;;;;;4994350;28;20481;-60
2021/03/28 08:22:42;;;;;;;3.33;1.77;;;;;;;;;;4996383;28;20476;-61
2021/03/28 08:25:14;;;;;;;3.50;2.30;;;;;;;;;;5013054;28;20468;-61
2021/03/28 08:27:56;;;;;;;7.00;3.97;;;;;;;;;;5015116;28;20034;-61
2021/03/28 08:30:48;;;;;;;3.60;2.40;;;;;;;;;;5001373;28;20030;-60
2021/03/28 08:33:26;;;;;;;4.38;2.72;;;;;;;;;;5012635;28;20112;-59
2021/03/28 08:36:11;;;;;;;6.57;2.70;;;;;;;;;;5014251;28;20057;-59
2021/03/28 08:38:40;;;;;;;7.15;2.75;;;;;;;;;;5013112;28;20033;-58
2021/03/28 08:41:24;;;;;;;4.28;2.63;;;;;;;;;;5013412;28;20026;-60
2021/03/28 08:44:09;;;;;;;6.45;2.88;;;;;;;;;;5015080;28;20041;-59
2021/03/28 08:46:38;;;;;;;6.80;2.95;;;;;;;;;;5013675;28;20461;-60
2021/03/28 08:49:23;;;;;;;4.05;1.90;;;;;;;;;;5014155;28;20037;-63
2021/03/28 08:51:58;;;;;;;6.78;1.98;;;;;;;;;;5013313;28;20439;-60
2021/03/28 08:54:24;;;;;;;4.32;2.55;;;;;;;;;;5014234;28;20080;-59
2021/03/28 08:57:13;;;;;;;4.30;2.60;;;;;;;;;;5014040;28;20022;-60
2021/03/28 08:59:57;;;;;;;4.40;2.60;;;;;;;;;;5013778;28;20535;-59
2021/03/28 09:02:43;;;;;;;6.78;2.53;;;;;;;;;;5014486;28;20025;-60
2021/03/28 09:05:16;;;;;;;6.78;2.65;;;;;;;;;;5013122;28;20010;-58
2021/03/28 09:07:52;;;;;;;9.10;3.92;;;;;;;;;;5014633;28;20053;-55
2021/03/28 09:10:26;;;;;;;6.47;3.25;;;;;;;;;;5015412;28;20038;-56
2021/03/28 09:13:19;;;;;;;6.50;3.05;;;;;;;;;;5001161;28;20108;-56
2021/03/28 09:16:03;;;;;;;5.07;2.30;;;;;;;;;;4985959;28;20084;-56
2021/03/28 09:18:33;;;;;;;5.97;3.40;;;;;;;;;;5001227;28;20061;-56
2021/03/28 09:20:59;;;;;;;5.68;2.80;;;;;;;;;;5013035;28;20030;-56
2021/03/28 09:23:25;;;;;;;6.00;3.55;;;;;;;;;;5012354;28;20491;-55
2021/03/28 09:26:12;;;;;;;4.95;3.33;;;;;;;;;;5013370;28;20022;-58
2021/03/28 09:28:57;;;;;;;7.18;3.80;;;;;;;;;;5006438;28;20038;-57
2021/03/28 09:31:42;;;;;;;7.18;6.05;;;;;;;;;;5010564;28;20480;-57
2021/03/28 09:34:43;;;;;;;4.32;2.97;;;;;;;;;;4994800;28;20040;-56
2021/03/28 09:37:15;;;;;;;7.18;3.80;;;;;;;;;;5025930;28;20032;-56
2021/03/28 09:39:44;;;;;;;8.43;3.90;;;;;;;;;;5029042;28;20034;-56
2021/03/28 09:42:10;;;;;;;;;;;;;;;;;;5029716;28;20033;-56
2021/03/28 09:44:54;;;;;;;9.65;4.28;;;;;;;;;;5028878;28;19928;-57
2021/03/28 09:47:43;;;;;;;4.97;3.53;;;;;;;;;;5029195;28;20526;-56
2021/03/28 09:50:26;;;;;;;5.10;3.40;;;;;;;;;;5029052;28;20030;-57
2021/03/28 09:53:10;;;;;;;4.55;3.28;;;;;;;;;;5029197;28;20064;-57
2021/03/28 09:55:54;;;;;;;10.23;3.92;;;;;;;;;;5029684;28;20030;-56
2021/03/28 09:58:39;;;;;;;4.43;3.65;;;;;;;;;;5023163;28;20072;-56
2021/03/28 10:01:05;;;;;;;5.80;3.97;;;;;;;;;;5029034;28;20037;-56
2021/03/28 10:03:36;;;;;;;6.07;3.72;;;;;;;;;;5014722;28;20013;-57
2021/03/28 10:06:12;;;;;;;26.60;12.65;;;;;;;;;;5033337;28;20421;-56
2021/03/28 10:08:43;;;;;;;10.52;5.47;;;;;;;;;;5033281;28;20041;-56
2021/03/28 10:11:21;;;;;;;7.45;4.38;;;;;;;;;;5023877;28;20054;-56
2021/03/28 10:13:54;;;;;;;6.78;3.63;;;;;;;;;;5015475;28;20040;-57
2021/03/28 10:16:26;;;;;;;5.03;3.50;;;;;;;;;;5015640;28;20049;-58
2021/03/28 10:18:52;;;;;;;9.43;3.85;;;;;;;;;;5015341;28;20036;-57
2021/03/28 10:21:24;;;;;;;5.75;3.47;;;;;;;;;;5016004;28;20026;-57
2021/03/28 10:24:14;;;;;;;8.90;4.28;;;;;;;;;;5015372;28;20361;-55
2021/03/28 10:26:55;;;;;;;7.07;3.80;;;;;;;;;;5015505;28;20022;-56
2021/03/28 10:29:30;;;;;;;8.15;4.55;;;;;;;;;;5015335;28;20497;-60
2021/03/28 10:32:15;;;;;;;5.70;3.35;;;;;;;;;;5015405;28;20100;-59
2021/03/28 10:34:50;;;;;;;5.45;3.70;;;;;;;;;;5015773;28;20054;-57
2021/03/28 10:37:30;;;;;;;6.85;3.95;;;;;;;;;;5002904;28;20076;-56
2021/03/28 10:40:08;;;;;;;5.65;3.47;;;;;;;;;;5015380;28;20510;-56
2021/03/28 10:42:47;;;;;;;6.47;3.75;;;;;;;;;;5015516;28;20037;-59
2021/03/28 10:45:27;;;;;;;8.90;3.70;;;;;;;;;;5015509;28;20116;-55
2021/03/28 10:48:12;;;;;;;6.93;3.60;;;;;;;;;;5009572;28;20045;-56
2021/03/28 10:50:46;;;;;;;8.18;3.55;;;;;;;;;;5009764;28;20504;-55
2021/03/28 10:53:31;;;;;;;6.68;3.70;;;;;;;;;;5011056;28;20014;-60
2021/03/28 10:56:16;;;;;;;4.95;3.75;;;;;;;;;;5003811;28;20034;-56
2021/03/28 10:59:00;;;;;;;4.55;2.85;;;;;;;;;;5008701;28;20034;-56
2021/03/28 11:01:26;;;;;;;6.35;4.25;;;;;;;;;;4997392;28;20113;-56
2021/03/28 11:03:58;;;;;;;6.13;3.92;;;;;;;;;;5007356;28;20105;-55
2021/03/28 11:06:43;;;;;;;4.72;2.90;;;;;;;;;;4999166;28;20058;-60
2021/03/28 11:09:24;;;;;;;7.07;3.22;;;;;;;;;;5010881;28;20064;-56
2021/03/28 11:11:53;;;;;;;6.18;3.20;;;;;;;;;;5010200;28;21078;-62
2021/03/28 11:14:20;;;;;;;4.40;2.47;;;;;;;;;;5000990;28;20061;-57
2021/03/28 11:16:55;;;;;;;7.80;2.90;;;;;;;;;;5007581;28;20026;-63
2021/03/28 11:19:30;;;;;;;3.33;1.60;;;;;;;;;;5011200;28;20508;-59
2021/03/28 11:22:18;;;;;;;2.20;1.60;;;;;;;;;;5007942;28;20037;-56
2021/03/28 11:24:56;;;;;;;6.93;1.90;;;;;;;;;;4996349;28;20027;-66
2021/03/28 11:27:35;;;;;;;4.55;3.00;;;;;;;;;;5006591;28;20136;-56
2021/03/28 11:30:21;;;;;;;6.93;3.33;;;;;;;;;;5012692;28;20057;-64
2021/03/28 11:32:50;;;;;;;2.80;1.50;;;;;;;;;;5005073;28;20034;-60
2021/03/28 11:35:16;;;;;;;3.72;1.50;;;;;;;;;;5014091;28;20045;-53
2021/03/28 11:38:01;;;;;;;3.33;1.60;;;;;;;;;;5013956;28;20040;-55
2021/03/28 11:40:29;;;;;;;4.85;1.88;;;;;;;;;;5013787;28;20025;-56
2021/03/28 11:43:04;;;;;;;5.13;2.00;;;;;;;;;;5014196;28;20085;-55
2021/03/28 11:45:34;;;;;;;4.72;2.13;;;;;;;;;;4998886;28;20029;-55
2021/03/28 11:48:01;;;;;;;6.32;2.95;;;;;;;;;;5002433;28;20022;-56
2021/03/28 11:50:31;;;;;;;6.72;2.60;;;;;;;;;;5007236;28;20030;-60
2021/03/28 11:53:03;;;;;;;6.32;2.50;;;;;;;;;;5009980;28;20465;-61
2021/03/28 11:55:35;;;;;;;3.95;2.15;;;;;;;;;;5006985;28;20105;-61
2021/03/28 11:58:13;;;;;;;2.92;2.10;;;;;;;;;;5009037;28;20026;-58
2021/03/28 12:00:41;;;;;;;4.05;1.90;;;;;;;;;;5006263;28;20064;-58
2021/03/28 12:03:20;;;;;;;4.53;2.33;;;;;;;;;;5004014;28;20486;-60
2021/03/28 12:05:49;;;;;;;2.85;1.95;;;;;;;;;;5010817;28;20270;-59
2021/03/28 12:08:15;;;;;;;4.05;2.05;;;;;;;;;;5027268;28;20049;-59
2021/03/28 12:10:41;;;;;;;2.95;1.75;;;;;;;;;;5008168;28;20407;-59
2021/03/28 12:13:29;;;;;;;4.47;1.80;;;;;;;;;;5007483;28;20022;-57
2021/03/28 12:15:57;;;;;;;6.40;2.65;;;;;;;;;;4999111;28;20484;-58
2021/03/28 12:20:49;;;;;;;4.40;1.58;;;;;;;;;;5013425;28;20117;-55
2021/03/28 12:23:22;;;;;;;5.47;3.15;;;;;;;;;;5012974;28;20022;-57
2021/03/28 12:26:02;;;;;;;5.93;2.75;;;;;;;;;;5011422;28;20038;-55
2021/03/28 12:28:33;;;;;;;4.40;2.33;;;;;;;;;;5008228;28;20018;-60
2021/03/28 12:31:19;;;;;;;5.22;2.20;;;;;;;;;;5012850;28;20068;-58
2021/03/28 12:33:56;;;;;;;4.28;2.05;;;;;;;;;;5007977;28;20057;-70
2021/03/28 12:36:23;;;;;;;3.53;1.85;;;;;;;;;;5011483;28;20145;-59
2021/03/28 12:38:52;;;;;;;12.75;3.53;;;;;;;;;;5012727;28;20058;-59
2021/03/28 12:41:29;;;;;;;6.03;2.10;;;;;;;;;;5013547;28;20057;-58
2021/03/28 12:43:55;;;;;;;4.15;2.47;;;;;;;;;;5002999;28;20485;-59
2021/03/28 12:46:22;;;;;;;6.55;2.60;;;;;;;;;;5010436;28;20022;-58
2021/03/28 12:48:48;;;;;;;2.80;1.65;;;;;;;;;;5008344;28;20061;-56
2021/03/28 12:51:22;;;;;;;5.60;1.52;;;;;;;;;;4993432;28;20038;-56
2021/03/28 12:53:48;;;;;;;3.75;1.73;;;;;;;;;;4997966;28;20038;-58
2021/03/28 12:56:23;;;;;;;2.90;1.58;;;;;;;;;;4999278;28;20015;-56
2021/03/28 12:58:53;;;;;;;2.90;1.40;;;;;;;;;;5006676;28;20045;-55
2021/03/28 13:01:22;;;;;;;2.55;1.40;;;;;;;;;;5012574;28;20462;-62
2021/03/28 13:03:49;;;;;;;2.38;1.52;;;;;;;;;;5010222;28;20065;-60
2021/03/28 13:06:18;;;;;;;4.28;1.98;;;;;;;;;;4998062;28;20061;-58
2021/03/28 13:08:58;;;;;;;3.80;1.92;;;;;;;;;;5007191;28;20064;-57
2021/03/28 13:11:35;;;;;;;4.78;2.22;;;;;;;;;;5018959;23;20045;-60
2021/03/28 13:14:02;;;;;;;2.33;1.63;;;;;;;;;;5024436;28;20505;-59
2021/03/28 13:16:29;;;;;;;1.98;1.40;;;;;;;;;;5028707;28;20029;-62
2021/03/28 13:18:56;;;;;;;4.57;1.40;;;;;;;;;;5024389;28;20059;-61
2021/03/28 13:21:27;;;;;;;4.47;2.13;;;;;;;;;;5024070;28;20037;-58
2021/03/28 13:23:55;;;;;;;3.95;2.03;;;;;;;;;;5021443;28;20037;-59
2021/03/28 13:26:21;;;;;;;2.92;1.50;;;;;;;;;;5023606;28;20468;-63
2021/03/28 13:28:53;;;;;;;2.88;1.67;;;;;;;;;;5021535;28;20120;-57
2021/03/28 13:31:24;;;;;;;2.50;1.50;;;;;;;;;;5025452;28;20033;-58
2021/03/28 13:33:52;;;;;;;2.70;1.08;;;;;;;;;;5030652;28;20053;-58
2021/03/28 13:36:30;;;;;;;2.97;1.33;;;;;;;;;;5017922;28;20535;-60
2021/03/28 13:39:02;;;;;;;5.63;1.70;;;;;;;;;;5025935;28;20025;-58
2021/03/28 13:41:31;;;;;;;3.47;1.67;;;;;;;;;;5029744;28;20029;-59
2021/03/28 13:44:16;;;;;;;2.65;1.52;;;;;;;;;;5026376;28;20109;-58
2021/03/28 13:47:05;;;;;;;3.47;2.05;;;;;;;;;;5028528;28;20448;-58
2021/03/28 13:49:45;;;;;;;3.83;2.15;;;;;;;;;;4981003;28;20062;-61
2021/03/28 13:52:23;;;;;;;3.08;1.80;;;;;;;;;;4986404;28;20031;-60
2021/03/28 13:55:09;;;;;;;4.53;1.67;;;;;;;;;;4979554;28;20489;-61
2021/03/28 13:57:40;;;;;;;4.30;1.70;;;;;;;;;;4973399;28;20023;-58
2021/03/28 14:00:27;;;;;;;2.00;1.45;;;;;;;;;;4974291;28;20057;-57
2021/03/28 14:02:54;;;;;;;2.85;1.50;;;;;;;;;;4974167;28;20019;-57
2021/03/28 14:05:21;;;;;;;4.60;2.35;;;;;;;;;;4986470;28;20521;-62
2021/03/28 14:07:50;;;;;;;2.55;1.40;;;;;;;;;;4974653;28;20043;-59
2021/03/28 14:10:16;;;;;;;;;;;;;;;;;;4983000;28;20062;-60
2021/03/28 14:12:46;;;;;;;2.85;1.42;;;;;;;;;;4985395;28;19910;-59
2021/03/28 14:15:15;;;;;;;5.47;2.03;;;;;;;;;;4979576;28;20449;-62
2021/03/28 14:17:41;;;;;;;;;;;;;;;;;;4964402;28;20090;-58
2021/03/28 14:20:22;;;;;;;4.97;1.60;;;;;;;;;;4973974;28;19906;-58
2021/03/28 14:22:57;;;;;;;5.95;1.80;;;;;;;;;;4974947;28;20528;-58
2021/03/28 14:25:42;;;;;;;3.05;1.80;;;;;;;;;;4975156;28;20058;-57
2021/03/28 14:28:34;;;;;;;5.93;1.80;;;;;;;;;;4996000;28;20386;-56
2021/03/28 14:31:01;;;;;;;4.70;1.65;;;;;;;;;;4993878;28;20037;-62
2021/03/28 14:33:32;;;;;;;4.50;1.70;;;;;;;;;;4995703;28;20019;-58
2021/03/28 14:35:58;;;;;;;3.53;1.90;;;;;;;;;;4995776;28;20019;-57
2021/03/28 14:38:43;;;;;;;2.97;1.77;;;;;;;;;;4995480;28;20484;-59
2021/03/28 14:41:09;;;;;;;3.63;2.15;;;;;;;;;;5006341;28;20039;-57
2021/03/28 14:43:38;;;;;;;3.83;2.05;;;;;;;;;;5010862;28;20044;-62
2021/03/28 14:46:23;;;;;;;3.80;1.60;;;;;;;;;;5010085;28;20025;-57
2021/03/28 14:49:00;;;;;;;3.28;1.60;;;;;;;;;;5000753;28;20036;-58
2021/03/28 14:51:44;;;;;;;4.63;1.50;;;;;;;;;;5010265;28;20128;-58
2021/03/28 14:54:22;;;;;;;2.42;1.90;;;;;;;;;;5006994;28;20036;-57
2021/03/28 14:56:56;;;;;;;5.35;1.90;;;;;;;;;;5010601;28;20037;-61
2021/03/28 14:59:41;;;;;;;3.50;2.20;;;;;;;;;;5004857;28;20023;-59
2021/03/28 15:02:10;;;;;;;3.83;1.80;;;;;;;;;;5011991;28;20534;-62
2021/03/28 15:04:44;;;;;;;4.05;2.30;;;;;;;;;;5012277;28;20040;-61
2021/03/28 15:07:30;;;;;;;4.88;2.50;;;;;;;;;;5010686;28;20037;-56
2021/03/28 15:10:02;;;;;;;4.10;1.65;;;;;;;;;;4991481;28;20042;-58
2021/03/28 15:12:51;;;;;;;3.50;1.88;;;;;;;;;;4991904;28;20639;-57
2021/03/28 15:15:29;;;;;;;5.03;2.20;;;;;;;;;;4950769;29;20062;-58
2021/03/28 15:18:00;;;;;;;4.70;2.27;;;;;;;;;;4949277;29;20094;-59
2021/03/28 15:20:31;;;;;;;3.80;2.45;;;;;;;;;;4952081;29;20507;-57
2021/03/28 15:23:04;;;;;;;5.78;1.95;;;;;;;;;;4951314;29;20031;-59
2021/03/28 15:25:32;;;;;;;5.80;2.20;;;;;;;;;;4952439;29;20042;-58
2021/03/28 15:28:03;;;;;;;4.60;2.20;;;;;;;;;;4952938;29;20043;-57
2021/03/28 15:30:30;;;;;;;5.00;2.38;;;;;;;;;;4950799;29;20035;-60
2021/03/28 15:33:14;;;;;;;2.80;2.10;;;;;;;;;;4948987;29;20502;-58
2021/03/28 15:35:42;;;;;;;5.40;2.67;;;;;;;;;;4952179;29;20090;-58
2021/03/28 15:38:27;;;;;;;4.45;2.42;;;;;;;;;;4951240;29;20032;-57
2021/03/28 15:41:02;;;;;;;10.15;3.00;;;;;;;;;;4952124;29;20050;-58